Time;durP1;ratioP1;P1;durP2;ratioP2;P2;SDS_P1;SDS_P2;PMS_P1;PMS_P2;Temp;Humidity;BMP_temperature;BMP_pressure;BME280_temperature;BME280_humidity;BME280_pressure;Samples;Min_cycle;Max_cycle;Signal;HPM_P1;HPM_P2
2023/03/28 04:22:34;;;;;;;3.35;2.42;;;;;;;-0.51;100.00;101292.56;5089766;28;20747;-65
2023/03/28 04:25:02;;;;;;;3.58;2.53;;;;;;;-0.56;100.00;101291.94;5088539;28;20036;-66
2023/03/28 04:27:34;;;;;;;2.95;2.65;;;;;;;-0.57;100.00;101298.09;5067768;28;20037;-64
2023/03/28 04:30:01;;;;;;;3.67;2.47;;;;;;;-0.55;100.00;101304.94;5068281;28;20033;-66
2023/03/28 04:32:53;;;;;;;4.70;2.88;;;;;;;-0.63;100.00;101286.16;5069301;28;20036;-66
2023/03/28 04:35:28;;;;;;;4.55;2.53;;;;;;;-0.58;100.00;101291.19;5069486;28;20047;-66
2023/03/28 04:37:56;;;;;;;;;;;;;;;-0.59;100.00;101297.31;5068531;28;20573;-65
2023/03/28 04:40:26;;;;;;;2.38;1.70;;;;;;;-0.60;100.00;101296.47;5068176;28;20366;-65
2023/03/28 04:43:01;;;;;;;3.45;2.03;;;;;;;-0.54;100.00;101295.31;5084933;28;20037;-64
2023/03/28 04:45:34;;;;;;;3.17;2.10;;;;;;;-0.57;100.00;101295.50;5068001;28;20037;-63
2023/03/28 04:48:11;;;;;;;3.05;2.30;;;;;;;-0.49;100.00;101301.19;5067733;28;20029;-66
2023/03/28 04:50:37;;;;;;;3.78;3.25;;;;;;;-0.54;100.00;101295.31;5067993;28;20032;-64
2023/03/28 04:53:03;;;;;;;5.35;2.85;;;;;;;-0.56;100.00;101298.03;5067798;28;20033;-64
2023/03/28 04:55:28;;;;;;;5.95;3.38;;;;;;;-0.56;100.00;101307.66;5068251;28;20035;-65
2023/03/28 04:57:54;;;;;;;4.70;2.67;;;;;;;-0.62;100.00;101313.19;5067426;28;20063;-64
2023/03/28 05:00:21;;;;;;;4.60;2.50;;;;;;;-0.67;100.00;101313.41;5067434;28;20040;-65
2023/03/28 05:02:59;;;;;;;2.20;1.98;;;;;;;-0.66;100.00;101314.25;5069055;28;20071;-66
2023/03/28 05:05:26;;;;;;;2.58;1.65;;;;;;;-0.69;100.00;101320.50;5067663;28;20048;-66
2023/03/28 05:07:52;;;;;;;2.90;2.03;;;;;;;-0.74;100.00;101324.25;5068152;28;20040;-66
2023/03/28 05:10:19;;;;;;;3.35;2.15;;;;;;;-0.75;100.00;101333.03;5069483;28;20040;-65
2023/03/28 05:12:47;;;;;;;2.85;2.33;;;;;;;-0.70;100.00;101325.81;5068501;28;20045;-65
2023/03/28 05:15:12;;;;;;;3.22;2.53;;;;;;;-0.69;100.00;101330.97;5067310;28;20036;-65
2023/03/28 05:17:49;;;;;;;6.75;2.70;;;;;;;-0.68;100.00;101334.41;5067079;28;20037;-65
2023/03/28 05:20:24;;;;;;;3.03;1.70;;;;;;;-0.69;100.00;101340.59;5083723;28;20460;-66
2023/03/28 05:22:54;;;;;;;4.43;2.53;;;;;;;-0.69;100.00;101338.81;5067221;28;20524;-64
2023/03/28 05:25:20;;;;;;;2.15;1.52;;;;;;;-0.75;100.00;101341.72;5068102;28;20044;-65
2023/03/28 05:27:47;;;;;;;2.65;2.08;;;;;;;-0.75;100.00;101351.34;5066629;28;20124;-65
2023/03/28 05:30:14;;;;;;;2.45;2.13;;;;;;;-0.71;100.00;101352.91;5066977;28;20098;-64
2023/03/28 05:32:40;;;;;;;2.33;1.98;;;;;;;-0.77;100.00;101353.19;5060462;28;20463;-66
2023/03/28 05:35:11;;;;;;;4.03;2.17;;;;;;;-0.66;100.00;101356.13;5054090;28;20124;-66
2023/03/28 05:37:36;;;;;;;2.65;1.95;;;;;;;-0.68;100.00;101350.13;5053784;28;20037;-64
2023/03/28 05:40:06;;;;;;;3.80;2.17;;;;;;;-0.64;100.00;101354.31;5053820;28;20040;-64
2023/03/28 05:42:34;;;;;;;3.65;3.28;;;;;;;-0.60;100.00;101364.53;5070144;28;20045;-66
2023/03/28 05:45:07;;;;;;;3.17;2.40;;;;;;;-0.60;100.00;101364.53;5053780;28;20028;-63
2023/03/28 05:47:42;;;;;;;3.78;2.45;;;;;;;-0.58;100.00;101367.94;5053961;28;20056;-66
2023/03/28 05:50:08;;;;;;;3.15;1.73;;;;;;;-0.37;100.00;101373.03;5053875;28;20033;-66
2023/03/28 05:52:34;;;;;;;2.20;1.73;;;;;;;-0.46;100.00;101374.31;5053352;28;20033;-66
2023/03/28 05:55:04;;;;;;;2.92;1.95;;;;;;;-0.56;100.00;101370.47;5054293;28;20065;-66
2023/03/28 05:57:30;;;;;;;3.47;2.30;;;;;;;-0.51;100.00;101372.88;5052586;28;20037;-66
2023/03/28 05:59:55;;;;;;;1.65;1.50;;;;;;;-0.50;100.00;101374.56;5054316;28;20037;-66
2023/03/28 06:02:22;;;;;;;2.45;1.85;;;;;;;-0.44;100.00;101382.97;5053533;28;20033;-66
2023/03/28 06:04:51;;;;;;;2.35;1.77;;;;;;;-0.34;100.00;101378.94;5052995;28;20066;-65
2023/03/28 06:07:18;;;;;;;1.80;1.50;;;;;;;-0.24;100.00;101383.75;5052853;28;20067;-65
2023/03/28 06:09:43;;;;;;;5.47;2.28;;;;;;;-0.14;100.00;101388.44;5052729;28;20032;-63
2023/03/28 06:12:10;;;;;;;4.00;2.22;;;;;;;-0.02;100.00;101382.56;5052716;28;20056;-63
2023/03/28 06:14:40;;;;;;;3.40;2.38;;;;;;;0.15;100.00;101386.97;5052682;28;20064;-64
2023/03/28 06:17:09;;;;;;;3.47;2.40;;;;;;;0.30;100.00;101384.47;5052229;28;20563;-65
2023/03/28 06:19:44;;;;;;;3.90;2.63;;;;;;;0.44;100.00;101376.72;5052701;28;20136;-64
2023/03/28 06:22:09;;;;;;;3.90;2.60;;;;;;;0.66;100.00;101385.16;5052394;28;20125;-64
2023/03/28 06:24:36;;;;;;;2.75;2.13;;;;;;;0.64;100.00;101380.91;5052267;28;20040;-65
2023/03/28 06:27:02;;;;;;;3.58;2.20;;;;;;;1.04;100.00;101384.84;5052089;28;20033;-65
2023/03/28 06:29:28;;;;;;;4.53;2.25;;;;;;;1.25;100.00;101383.66;5052383;28;20037;-66
2023/03/28 06:32:00;;;;;;;2.65;2.28;;;;;;;1.43;100.00;101380.91;5052305;28;20056;-60
2023/03/28 06:34:26;;;;;;;3.33;2.67;;;;;;;1.57;100.00;101381.84;5052316;28;20441;-60
2023/03/28 06:36:56;;;;;;;2.85;2.10;;;;;;;1.80;100.00;101379.66;5051818;28;20033;-56
2023/03/28 06:39:28;;;;;;;2.05;1.85;;;;;;;1.96;100.00;101377.00;5052159;28;20205;-65
2023/03/28 06:41:56;;;;;;;2.45;2.00;;;;;;;2.05;100.00;101381.69;5051965;28;20033;-65
2023/03/28 06:44:29;;;;;;;3.58;2.22;;;;;;;2.31;100.00;101391.50;5051097;28;20025;-65
2023/03/28 06:47:07;;;;;;;5.30;2.33;;;;;;;2.40;100.00;101390.09;5051665;28;20029;-65
2023/03/28 06:49:33;;;;;;;2.20;1.80;;;;;;;2.54;100.00;101384.81;5051778;28;20091;-64
2023/03/28 06:52:28;;;;;;;2.67;1.95;;;;;;;2.67;100.00;101377.91;5051928;28;20456;-66
2023/03/28 06:54:55;;;;;;;2.97;2.20;;;;;;;3.07;100.00;101393.81;5051940;28;20044;-65
2023/03/28 06:57:20;;;;;;;4.60;1.88;;;;;;;3.32;100.00;101385.19;5051536;28;20521;-66
2023/03/28 06:59:47;;;;;;;3.78;2.10;;;;;;;3.51;98.97;101390.94;5051817;28;20036;-65
2023/03/28 07:02:19;;;;;;;5.28;2.78;;;;;;;3.41;97.41;101396.94;5052403;28;20446;-66
2023/03/28 07:04:47;;;;;;;3.43;2.67;;;;;;;3.57;95.81;101394.13;5071901;28;20032;-65
2023/03/28 07:07:13;;;;;;;4.47;2.25;;;;;;;3.64;96.13;101403.31;5071242;28;20299;-66
2023/03/28 07:09:40;;;;;;;3.50;2.10;;;;;;;3.61;96.04;101400.91;5071634;28;20580;-66
2023/03/28 07:12:09;;;;;;;2.85;2.15;;;;;;;3.90;96.98;101410.34;5071309;28;20045;-65
2023/03/28 07:14:34;;;;;;;2.13;1.75;;;;;;;4.06;97.00;101408.41;5071359;28;20048;-66
2023/03/28 07:17:00;;;;;;;2.03;1.65;;;;;;;4.09;94.87;101416.09;5071221;28;20032;-66
2023/03/28 07:19:26;;;;;;;2.00;1.77;;;;;;;4.33;93.47;101412.75;5072606;28;20103;-63
2023/03/28 07:21:52;;;;;;;4.13;1.98;;;;;;;4.39;92.06;101416.75;5071139;28;20089;-65
2023/03/28 07:24:19;;;;;;;5.07;2.45;;;;;;;4.50;92.59;101417.72;5071355;28;20586;-65
2023/03/28 07:27:08;;;;;;;3.40;2.10;;;;;;;4.63;94.16;101423.84;5070691;28;20040;-66
2023/03/28 07:29:34;;;;;;;3.08;2.15;;;;;;;4.67;90.51;101424.47;5071126;28;20497;-66
2023/03/28 07:31:59;;;;;;;4.10;2.30;;;;;;;4.93;94.02;101427.06;5072299;28;20159;-65
2023/03/28 07:34:25;;;;;;;3.22;1.90;;;;;;;4.90;90.96;101420.22;5071000;28;20477;-65
2023/03/28 07:36:50;;;;;;;2.15;1.90;;;;;;;4.90;87.34;101422.84;5070822;28;20029;-65
2023/03/28 07:39:38;;;;;;;3.53;2.40;;;;;;;4.85;87.45;101431.09;5070834;28;20051;-65
2023/03/28 07:42:09;;;;;;;2.78;2.17;;;;;;;4.93;88.80;101430.56;5071015;28;20032;-66
2023/03/28 07:44:35;;;;;;;3.35;2.17;;;;;;;4.78;86.52;101399.97;5072169;28;20579;-65
2023/03/28 07:47:00;;;;;;;2.42;1.83;;;;;;;5.05;88.85;101428.84;5070731;28;20033;-65
2023/03/28 07:49:26;;;;;;;2.88;2.13;;;;;;;5.04;86.81;101430.66;5070807;28;20098;-68
2023/03/28 07:51:51;;;;;;;4.38;2.20;;;;;;;5.22;87.22;101436.44;5070762;28;20035;-67
2023/03/28 07:54:17;;;;;;;2.85;1.83;;;;;;;5.41;87.51;101443.84;5070686;28;20040;-67
2023/03/28 07:56:45;;;;;;;4.05;2.30;;;;;;;5.67;86.45;101437.53;5070399;28;20090;-67
2023/03/28 07:59:20;;;;;;;2.00;1.73;;;;;;;5.85;86.22;101437.09;5070618;28;20036;-67
2023/03/28 08:01:49;;;;;;;3.22;1.92;;;;;;;6.04;85.58;101444.56;5070773;28;20558;-68
2023/03/28 08:04:17;;;;;;;2.65;2.05;;;;;;;5.97;83.68;101439.72;5071019;28;20028;-68
2023/03/28 08:07:09;;;;;;;5.50;1.90;;;;;;;5.80;77.66;101436.59;5069336;28;20045;-67
2023/03/28 08:09:36;;;;;;;4.10;1.80;;;;;;;6.03;83.46;101437.56;5070577;28;20112;-67
2023/03/28 08:12:21;;;;;;;3.55;1.75;;;;;;;6.10;79.69;101439.66;5070576;28;20079;-67
2023/03/28 08:14:47;;;;;;;2.33;1.52;;;;;;;5.77;74.56;101432.41;5070770;28;20465;-68
2023/03/28 08:17:16;;;;;;;2.17;1.85;;;;;;;6.22;78.75;101440.53;5070353;28;20497;-68
2023/03/28 08:19:43;;;;;;;2.40;1.40;;;;;;;6.36;76.48;101435.03;5070465;28;20111;-67
2023/03/28 08:22:12;;;;;;;2.92;1.50;;;;;;;6.45;77.71;101430.81;5071906;28;20042;-66
2023/03/28 08:25:08;;;;;;;2.38;1.42;;;;;;;6.61;72.32;101433.16;5062478;28;20119;-67
2023/03/28 08:27:35;;;;;;;3.15;1.27;;;;;;;6.57;75.56;101437.81;5070197;28;20051;-67
2023/03/28 08:30:06;;;;;;;2.33;1.42;;;;;;;6.68;73.98;101437.84;5070476;28;20501;-67
2023/03/28 08:32:35;;;;;;;2.17;1.65;;;;;;;6.79;69.43;101443.16;5068425;28;20048;-66
2023/03/28 08:35:02;;;;;;;2.38;1.65;;;;;;;7.08;71.29;101445.31;5050438;28;20029;-67
2023/03/28 08:37:29;;;;;;;3.65;1.90;;;;;;;6.93;67.60;101435.94;5049229;28;20067;-66
2023/03/28 08:39:57;;;;;;;2.00;1.30;;;;;;;7.29;68.18;101438.28;5050010;28;20056;-67
2023/03/28 08:42:48;;;;;;;1.80;1.48;;;;;;;7.54;66.78;101437.16;5050294;28;20033;-66
2023/03/28 08:45:32;;;;;;;2.58;1.48;;;;;;;7.20;64.09;101439.03;5049148;28;20032;-67
2023/03/28 08:48:22;;;;;;;4.43;1.60;;;;;;;7.34;63.12;101448.53;5049995;28;20091;-66
2023/03/28 08:51:12;;;;;;;4.45;1.73;;;;;;;7.21;62.60;101447.81;5050202;28;20041;-66
2023/03/28 08:53:42;;;;;;;2.25;1.75;;;;;;;7.28;66.56;101439.25;5050236;28;20029;-67
2023/03/28 08:56:10;;;;;;;3.13;1.25;;;;;;;7.52;65.53;101440.91;5050046;28;20060;-66
2023/03/28 08:58:51;;;;;;;2.67;1.35;;;;;;;7.56;60.83;101443.19;5049779;28;20616;-66
2023/03/28 09:01:20;;;;;;;4.00;1.33;;;;;;;7.46;60.84;101442.25;5050134;28;20060;-66
2023/03/28 09:03:48;;;;;;;4.80;1.15;;;;;;;7.51;59.62;101444.53;5050091;28;20048;-66
2023/03/28 09:06:39;;;;;;;0.90;0.90;;;;;;;7.21;56.33;101431.94;5050027;28;20033;-67
2023/03/28 09:09:22;;;;;;;1.65;1.05;;;;;;;7.78;57.10;101433.47;5053148;28;20490;-67
2023/03/28 09:12:25;;;;;;;1.92;1.10;;;;;;;8.23;60.08;101435.94;5053879;28;20510;-66
2023/03/28 09:15:17;;;;;;;4.72;1.50;;;;;;;8.34;57.11;101428.72;5053927;28;20124;-66
2023/03/28 09:17:55;;;;;;;2.72;1.58;;;;;;;8.48;65.15;101434.72;5054695;28;20044;-67
2023/03/28 09:20:38;;;;;;;1.55;1.42;;;;;;;8.89;62.20;101429.34;5053816;28;20041;-67
2023/03/28 09:23:39;;;;;;;3.95;1.50;;;;;;;9.42;60.90;101428.22;5053647;28;20033;-66
2023/03/28 09:26:30;;;;;;;3.60;1.52;;;;;;;9.32;56.68;101432.66;5054835;28;20167;-66
2023/03/28 09:29:09;;;;;;;3.17;1.60;;;;;;;9.85;59.93;101425.22;5053260;28;20035;-67
2023/03/28 09:31:44;;;;;;;2.15;1.70;;;;;;;10.18;59.72;101434.56;5053406;28;20037;-67
2023/03/28 09:34:26;;;;;;;3.35;1.55;;;;;;;10.54;54.98;101424.16;5053381;28;20040;-67
2023/03/28 09:36:58;;;;;;;2.13;1.55;;;;;;;9.79;57.97;101423.94;5053255;28;20064;-67
2023/03/28 09:39:42;;;;;;;3.22;1.50;;;;;;;9.47;56.08;101436.66;5053268;28;20041;-66
2023/03/28 09:42:27;;;;;;;2.15;1.42;;;;;;;9.83;54.57;101431.63;5053342;28;20036;-65
2023/03/28 09:45:42;;;;;;;1.52;1.38;;;;;;;9.31;56.13;101433.66;5054397;28;20043;-64
2023/03/28 09:48:40;;;;;;;2.58;1.45;;;;;;;9.37;55.37;101427.78;5053927;28;20528;-65
2023/03/28 09:51:15;;;;;;;3.28;1.63;;;;;;;9.60;55.29;101420.44;5052947;28;20099;-65
2023/03/28 09:53:41;;;;;;;1.88;1.40;;;;;;;9.39;54.12;101420.50;5053122;28;20115;-66
2023/03/28 09:56:20;;;;;;;2.88;1.33;;;;;;;9.24;57.23;101412.09;5052885;28;20059;-58
2023/03/28 09:58:47;;;;;;;3.22;1.10;;;;;;;9.19;53.34;101414.31;5052606;28;20496;-64
2023/03/28 10:01:42;;;;;;;2.00;1.58;;;;;;;8.97;55.66;101415.38;5052897;28;20024;-64
2023/03/28 10:04:27;;;;;;;2.10;1.20;;;;;;;8.94;53.73;101415.66;5054277;28;20457;-64
2023/03/28 10:07:11;;;;;;;1.95;1.30;;;;;;;8.77;53.76;101421.59;5052514;28;20052;-66
2023/03/28 10:09:52;;;;;;;2.50;1.50;;;;;;;8.38;53.85;101414.25;5052832;28;20044;-66
2023/03/28 10:12:32;;;;;;;3.08;1.50;;;;;;;8.58;55.24;101417.84;5052639;28;20119;-65
2023/03/28 10:14:57;;;;;;;5.40;1.50;;;;;;;8.31;56.28;101413.06;5032776;28;20076;-65
2023/03/28 10:17:43;;;;;;;2.00;1.30;;;;;;;8.44;57.08;101412.88;5022226;28;20073;-65
2023/03/28 10:20:22;;;;;;;2.28;1.38;;;;;;;8.24;55.54;101411.06;5032547;28;20124;-65
2023/03/28 10:22:54;;;;;;;1.73;1.33;;;;;;;8.38;56.12;101411.59;5049232;28;20502;-65
2023/03/28 10:25:36;;;;;;;3.55;1.40;;;;;;;8.32;55.07;101409.44;5049137;28;20041;-65
2023/03/28 10:28:03;;;;;;;2.80;1.40;;;;;;;8.51;55.42;101399.94;5048871;28;20033;-66
2023/03/28 10:30:32;;;;;;;2.67;1.70;;;;;;;8.73;51.66;101402.41;5032719;28;20041;-66
2023/03/28 10:33:16;;;;;;;1.80;1.23;;;;;;;9.14;51.71;101398.78;5048955;28;20045;-65
2023/03/28 10:36:06;;;;;;;2.92;0.93;;;;;;;9.27;50.55;101406.50;5033613;28;20103;-66
2023/03/28 10:38:45;;;;;;;3.08;1.25;;;;;;;9.95;49.85;101403.91;5048597;28;20029;-66
2023/03/28 10:41:30;;;;;;;1.92;1.10;;;;;;;10.42;49.74;101391.50;5033595;28;20037;-65
2023/03/28 10:44:26;;;;;;;1.60;1.02;;;;;;;11.21;45.48;101383.03;5051067;28;20039;-66
2023/03/28 10:47:05;;;;;;;0.90;0.87;;;;;;;11.52;43.99;101380.00;5031889;28;20065;-66
2023/03/28 10:49:49;;;;;;;1.73;0.93;;;;;;;11.94;42.49;101381.13;5032136;28;20034;-66
2023/03/28 10:52:35;;;;;;;2.85;1.15;;;;;;;11.40;46.51;101382.06;5032062;28;20042;-65
2023/03/28 10:55:06;;;;;;;1.70;1.13;;;;;;;12.58;41.36;101375.50;5033363;28;20479;-66
2023/03/28 10:57:56;;;;;;;2.40;0.98;;;;;;;12.92;41.82;101373.69;5031778;28;20453;-66
2023/03/28 11:00:37;;;;;;;3.00;1.10;;;;;;;13.74;36.79;101364.00;5032090;28;20079;-66
2023/03/28 11:03:14;;;;;;;1.30;1.02;;;;;;;14.30;36.55;101350.75;5031984;28;20030;-66
2023/03/28 11:05:51;;;;;;;3.08;1.02;;;;;;;13.37;38.50;101359.13;5031777;28;20455;-66
2023/03/28 11:08:23;;;;;;;1.08;0.82;;;;;;;13.18;39.58;101351.38;5031541;28;20037;-67
2023/03/28 11:11:10;;;;;;;1.58;0.93;;;;;;;14.61;37.62;101351.69;5031686;28;20034;-66
2023/03/28 11:13:49;;;;;;;2.72;1.00;;;;;;;13.48;34.51;101347.25;5031765;28;20041;-57
2023/03/28 11:16:30;;;;;;;2.25;1.00;;;;;;;13.29;34.28;101348.41;5031727;28;20470;-66
2023/03/28 11:19:12;;;;;;;2.45;1.00;;;;;;;13.11;35.95;101343.16;5030873;28;20041;-66
2023/03/28 11:22:04;;;;;;;2.47;1.13;;;;;;;12.92;36.20;101340.75;5031364;28;20033;-66
2023/03/28 11:24:54;;;;;;;1.10;0.77;;;;;;;12.07;38.26;101334.47;5031495;28;20090;-66
2023/03/28 11:27:47;;;;;;;2.28;1.20;;;;;;;13.02;41.95;101325.41;5031923;28;20121;-66
2023/03/28 11:30:34;;;;;;;1.13;1.02;;;;;;;13.15;38.81;101332.94;5031720;28;20042;-66
2023/03/28 11:33:31;;;;;;;1.30;1.02;;;;;;;13.57;39.02;101328.38;5048086;28;20033;-66
2023/03/28 11:36:07;;;;;;;1.83;0.90;;;;;;;13.77;38.59;101325.38;5047787;28;20120;-66
2023/03/28 11:38:41;;;;;;;3.50;1.13;;;;;;;13.82;37.91;101326.53;5030984;28;20676;-67
2023/03/28 11:41:10;;;;;;;1.33;0.88;;;;;;;13.32;40.08;101320.50;5031356;28;20037;-66
2023/03/28 11:44:23;;;;;;;1.15;0.90;;;;;;;13.71;39.39;101309.97;5028418;28;20044;-66
2023/03/28 11:46:55;;;;;;;2.42;1.25;;;;;;;12.85;41.18;101308.47;5030986;28;20042;-66
2023/03/28 11:49:30;;;;;;;2.97;1.10;;;;;;;12.75;41.59;101295.22;5031096;28;20040;-66
2023/03/28 11:52:27;;;;;;;2.10;0.90;;;;;;;13.34;39.31;101297.91;5046537;28;20120;-67
2023/03/28 11:55:14;;;;;;;1.20;1.08;;;;;;;13.45;39.08;101304.78;5047586;28;20033;-67
2023/03/28 11:57:46;;;;;;;2.38;1.20;;;;;;;13.74;38.17;101294.38;5047141;28;20402;-66
2023/03/28 12:00:25;;;;;;;2.05;1.20;;;;;;;14.17;37.65;101295.00;5047539;28;20090;-67
2023/03/28 12:03:02;;;;;;;1.90;0.90;;;;;;;14.22;36.87;101294.50;5047553;28;20406;-67
2023/03/28 12:05:33;;;;;;;1.52;1.10;;;;;;;14.48;37.20;101280.88;5047337;28;20030;-67
2023/03/28 12:08:23;;;;;;;1.48;0.85;;;;;;;15.28;35.54;101268.00;5047146;28;20070;-67
2023/03/28 12:10:54;;;;;;;2.30;1.30;;;;;;;15.22;33.66;101263.34;5047286;28;20036;-67
2023/03/28 12:13:41;;;;;;;1.70;0.90;;;;;;;16.09;34.63;101266.44;5047451;28;20029;-68
2023/03/28 12:16:29;;;;;;;2.35;1.15;;;;;;;16.89;34.58;101267.50;5047087;28;20440;-68
2023/03/28 12:19:00;;;;;;;1.55;1.17;;;;;;;17.37;33.21;101257.84;5046942;28;20498;-67
2023/03/28 12:21:55;;;;;;;1.50;1.10;;;;;;;18.03;31.91;101242.22;5047157;28;20038;-66
2023/03/28 12:24:41;;;;;;;1.35;0.95;;;;;;;17.30;30.95;101249.72;5047336;28;20038;-66
2023/03/28 12:27:38;;;;;;;3.63;1.13;;;;;;;17.00;29.75;101240.09;5046665;28;20572;-66
2023/03/28 12:30:41;;;;;;;2.35;1.00;;;;;;;15.97;31.24;101238.34;5028920;28;20525;-67
2023/03/28 12:33:22;;;;;;;0.93;0.90;;;;;;;17.47;30.39;101209.03;5029298;28;20049;-68
2023/03/28 12:36:23;;;;;;;3.22;1.30;;;;;;;16.80;29.91;101226.44;5046867;28;20518;-67
2023/03/28 12:39:02;;;;;;;3.03;1.33;;;;;;;16.95;31.34;101212.91;5030189;28;20517;-67
2023/03/28 12:41:36;;;;;;;1.67;0.85;;;;;;;15.81;31.60;101206.31;5046879;28;20045;-67
2023/03/28 12:44:14;;;;;;;2.58;1.08;;;;;;;15.50;31.79;101211.78;5035255;28;20040;-66
2023/03/28 12:46:56;;;;;;;1.33;0.90;;;;;;;17.24;30.39;101201.19;5050964;28;20029;-68
2023/03/28 12:49:40;;;;;;;1.52;0.93;;;;;;;17.08;29.44;101203.13;5050815;28;20045;-66
2023/03/28 12:52:15;;;;;;;2.60;1.00;;;;;;;17.80;27.54;101194.00;5050853;28;20041;-66
2023/03/28 12:55:00;;;;;;;2.03;1.05;;;;;;;19.03;28.74;101197.56;5050880;28;20037;-67
2023/03/28 12:57:42;;;;;;;1.95;1.10;;;;;;;18.24;28.70;101198.16;5050699;28;20041;-66
2023/03/28 13:00:56;;;;;;;3.15;1.15;;;;;;;17.93;28.27;101187.84;4998460;28;20048;-66
2023/03/28 13:03:56;;;;;;;2.55;0.90;;;;;;;17.89;30.08;101191.97;5035519;28;20702;-66
2023/03/28 13:06:44;;;;;;;1.75;0.90;;;;;;;18.33;28.86;101180.78;5050491;28;20042;-67
2023/03/28 13:09:40;;;;;;;2.22;1.02;;;;;;;18.05;29.83;101166.53;5034938;28;20037;-66
2023/03/28 13:12:20;;;;;;;2.15;1.15;;;;;;;17.88;28.48;101176.81;5035273;28;20072;-66
2023/03/28 13:15:02;;;;;;;1.58;1.00;;;;;;;17.61;30.77;101173.09;5035068;28;20044;-67
2023/03/28 13:17:31;;;;;;;2.75;1.13;;;;;;;17.08;30.34;101169.97;5034633;28;20672;-66
2023/03/28 13:20:17;;;;;;;1.52;0.90;;;;;;;16.79;30.64;101165.56;5035064;28;20033;-66
2023/03/28 13:22:52;;;;;;;1.20;0.80;;;;;;;17.17;31.18;101162.63;5035099;28;20088;-66
2023/03/28 13:25:32;;;;;;;1.23;0.80;;;;;;;16.39;29.82;101148.97;5034785;28;20029;-66
2023/03/28 13:28:25;;;;;;;1.90;0.93;;;;;;;16.83;29.86;101156.09;5034660;28;20083;-66
2023/03/28 13:31:23;;;;;;;1.50;1.20;;;;;;;16.91;29.21;101155.13;5034850;28;20116;-66
2023/03/28 13:34:01;;;;;;;3.50;0.90;;;;;;;16.92;28.80;101146.03;5033290;28;20467;-66
2023/03/28 13:36:32;;;;;;;1.13;1.00;;;;;;;15.50;31.84;101128.53;5034725;28;20041;-66
2023/03/28 13:39:07;;;;;;;0.75;0.75;;;;;;;14.94;33.09;101126.22;5034502;28;20068;-66
2023/03/28 13:41:40;;;;;;;1.05;0.80;;;;;;;15.32;33.77;101135.13;5034759;28;20045;-66
2023/03/28 13:44:12;;;;;;;2.30;0.98;;;;;;;15.22;35.31;101123.78;5050044;28;20060;-66
2023/03/28 13:46:42;;;;;;;2.15;1.10;;;;;;;16.20;31.53;101112.78;5034655;28;20398;-66
2023/03/28 13:49:17;;;;;;;1.08;0.68;;;;;;;16.31;33.40;101118.69;5034266;28;20063;-66
2023/03/28 13:51:54;;;;;;;1.65;1.05;;;;;;;16.82;32.00;101105.97;5034452;28;20030;-66
2023/03/28 13:54:20;;;;;;;3.17;1.30;;;;;;;17.19;31.58;101102.16;5033915;28;20040;-67
2023/03/28 13:56:48;;;;;;;3.22;0.90;;;;;;;16.98;33.26;101094.97;5034203;28;20486;-66
2023/03/28 13:59:25;;;;;;;1.23;0.82;;;;;;;16.51;33.81;101099.06;5034250;28;20099;-66
2023/03/28 14:01:56;;;;;;;1.30;1.00;;;;;;;16.39;32.08;101097.88;5034174;28;20029;-65
2023/03/28 14:04:25;;;;;;;1.92;1.00;;;;;;;16.08;33.83;101087.41;5034172;28;20048;-66
2023/03/28 14:06:51;;;;;;;1.25;1.10;;;;;;;15.60;33.70;101086.16;5033972;28;20034;-66
2023/03/28 14:09:20;;;;;;;0.98;0.90;;;;;;;15.73;33.61;101084.50;5033981;28;20037;-68
2023/03/28 14:11:47;;;;;;;1.35;1.10;;;;;;;15.35;34.23;101088.28;5034217;28;20069;-66
2023/03/28 14:14:18;;;;;;;2.28;1.02;;;;;;;15.23;33.88;101081.69;5034027;28;20040;-66
2023/03/28 14:16:45;;;;;;;2.78;1.30;;;;;;;15.02;34.44;101074.34;5033867;28;20127;-68
2023/03/28 14:19:20;;;;;;;1.90;1.15;;;;;;;14.15;34.67;101080.00;5033728;28;20051;-68
2023/03/28 14:21:45;;;;;;;1.02;0.93;;;;;;;13.54;33.99;101071.72;5033846;28;20051;-66
2023/03/28 14:24:25;;;;;;;1.63;1.13;;;;;;;13.12;35.48;101069.31;5033773;28;20080;-65
2023/03/28 14:26:50;;;;;;;2.97;0.95;;;;;;;12.72;38.45;101065.66;5033541;28;20045;-65
2023/03/28 14:29:18;;;;;;;1.50;0.98;;;;;;;12.45;40.08;101061.50;5033171;28;20045;-69
2023/03/28 14:31:45;;;;;;;2.83;1.02;;;;;;;12.44;37.81;101050.94;5033772;28;20041;-68
2023/03/28 14:34:29;;;;;;;1.65;1.13;;;;;;;12.51;36.85;101043.94;5032255;28;20041;-68
2023/03/28 14:37:04;;;;;;;1.30;1.02;;;;;;;12.29;41.80;101040.06;5033367;28;20045;-67
2023/03/28 14:39:32;;;;;;;1.05;0.82;;;;;;;12.08;42.56;101051.22;5033518;28;20037;-68
2023/03/28 14:42:04;;;;;;;1.35;1.02;;;;;;;12.30;38.78;101032.91;5033526;28;20045;-67
2023/03/28 14:44:34;;;;;;;4.28;1.23;;;;;;;12.65;37.38;101034.41;5033394;28;20045;-66
2023/03/28 14:47:00;;;;;;;1.00;0.90;;;;;;;12.32;37.03;101026.38;5045543;28;20033;-66
2023/03/28 14:49:26;;;;;;;1.08;0.80;;;;;;;12.36;37.77;101017.03;5052901;28;20497;-67
2023/03/28 14:51:57;;;;;;;2.45;1.00;;;;;;;11.87;38.81;101016.97;5052908;28;20040;-66
2023/03/28 14:54:37;;;;;;;1.95;0.88;;;;;;;12.12;38.26;101009.81;5052744;28;20163;-66
2023/03/28 14:57:04;;;;;;;0.95;0.90;;;;;;;12.21;38.61;101000.84;5052819;28;20037;-66
2023/03/28 14:59:40;;;;;;;3.80;1.13;;;;;;;12.30;37.43;101000.84;5052895;28;20070;-66
2023/03/28 15:02:19;;;;;;;1.38;1.00;;;;;;;12.08;38.07;100989.81;5053167;28;20037;-66
2023/03/28 15:04:46;;;;;;;2.28;1.25;;;;;;;12.03;38.33;100991.31;5052531;28;20036;-66
2023/03/28 15:07:22;;;;;;;1.40;1.27;;;;;;;12.19;36.87;100986.81;5052310;28;20068;-66
2023/03/28 15:10:03;;;;;;;2.55;1.00;;;;;;;11.97;38.53;100978.59;5052884;28;20490;-66
2023/03/28 15:12:29;;;;;;;3.58;1.20;;;;;;;12.07;37.80;100973.97;5052839;28;20040;-66
2023/03/28 15:14:56;;;;;;;1.45;0.90;;;;;;;11.94;39.16;100971.78;5052794;28;20032;-66
2023/03/28 15:17:22;;;;;;;2.63;1.05;;;;;;;11.74;39.23;100962.38;5052382;28;20136;-66
2023/03/28 15:19:57;;;;;;;0.77;0.70;;;;;;;11.97;38.78;100954.56;5052779;28;20048;-66
2023/03/28 15:22:26;;;;;;;2.20;1.40;;;;;;;12.04;39.18;100948.41;5052714;28;20427;-66
2023/03/28 15:24:53;;;;;;;1.20;0.80;;;;;;;12.04;38.92;100950.25;5052766;28;20456;-66
2023/03/28 15:27:36;;;;;;;1.13;0.82;;;;;;;11.66;38.82;100945.31;5052361;28;20052;-66
2023/03/28 15:30:20;;;;;;;2.63;0.90;;;;;;;11.71;39.14;100935.97;5052584;28;20037;-66
2023/03/28 15:32:47;;;;;;;1.35;0.88;;;;;;;11.60;39.34;100932.59;5052344;28;20397;-66
2023/03/28 15:35:38;;;;;;;1.55;1.10;;;;;;;11.52;39.91;100924.59;5052342;28;20033;-66
2023/03/28 15:38:07;;;;;;;1.45;0.80;;;;;;;11.59;41.97;100933.63;5052114;28;20045;-66
2023/03/28 15:40:50;;;;;;;5.57;0.98;;;;;;;11.71;41.30;100925.31;5052378;28;20559;-67
2023/03/28 15:43:24;;;;;;;4.30;1.10;;;;;;;11.71;41.37;100933.31;5052397;28;20037;-67
2023/03/28 15:45:55;;;;;;;2.22;0.90;;;;;;;11.68;41.70;100927.31;5052210;28;20086;-66
2023/03/28 15:48:21;;;;;;;2.60;1.05;;;;;;;11.65;41.29;100929.47;5051998;28;20076;-66
2023/03/28 15:50:52;;;;;;;0.90;0.70;;;;;;;11.65;41.98;100937.47;5052166;28;20072;-66
2023/03/28 15:53:19;;;;;;;2.88;1.08;;;;;;;11.57;41.58;100922.28;5052169;28;20045;-66
2023/03/28 15:55:47;;;;;;;1.52;1.00;;;;;;;11.46;41.80;100919.91;5052153;28;20051;-66
2023/03/28 15:58:15;;;;;;;1.20;1.00;;;;;;;11.46;42.10;100922.56;5051766;28;20041;-66
2023/03/28 16:00:48;;;;;;;2.90;1.10;;;;;;;11.46;42.49;100908.41;5052018;28;20561;-66
2023/03/28 16:03:19;;;;;;;2.17;1.08;;;;;;;11.49;42.48;100914.25;5052161;28;20037;-66
2023/03/28 16:06:11;;;;;;;2.33;1.10;;;;;;;11.45;42.07;100914.75;5051860;28;20047;-66
2023/03/28 16:09:08;;;;;;;3.92;1.20;;;;;;;11.27;42.17;100920.19;5048999;28;20056;-66
2023/03/28 16:11:34;;;;;;;0.80;0.80;;;;;;;11.26;42.56;100916.69;5051964;28;20061;-66
2023/03/28 16:14:19;;;;;;;1.63;0.93;;;;;;;11.12;43.16;100909.31;5052253;28;20079;-66
2023/03/28 16:17:06;;;;;;;3.90;0.80;;;;;;;11.20;43.26;100900.50;5050181;28;20116;-66
2023/03/28 16:19:40;;;;;;;1.25;0.93;;;;;;;11.20;43.25;100900.50;5050701;28;20025;-66
2023/03/28 16:22:06;;;;;;;1.50;0.93;;;;;;;11.24;42.94;100904.50;5050645;28;20403;-66
2023/03/28 16:24:33;;;;;;;2.05;1.17;;;;;;;11.17;42.90;100893.66;5051771;28;20284;-66
2023/03/28 16:27:00;;;;;;;1.60;1.00;;;;;;;11.11;42.72;100894.31;5051494;28;20047;-66